createdAt,value
2024-01-01T00:00:03.328Z,94285.00
2024-01-01T00:01:03.324Z,94286.00
2024-01-01T00:02:03.370Z,94282.00
2024-01-01T00:03:03.324Z,94281.00
2024-01-01T00:04:03.372Z,94282.00
2024-01-01T00:05:03.391Z,94279.00
2024-01-01T00:06:03.429Z,94274.00
2024-01-01T00:07:03.329Z,94271.00
2024-01-01T00:08:03.598Z,94271.00
2024-01-01T00:09:03.344Z,94271.00
2024-01-01T00:10:03.340Z,94270.00
2024-01-01T00:11:03.376Z,94270.00
2024-01-01T00:12:03.360Z,94272.00
2024-01-01T00:13:03.341Z,94274.00
2024-01-01T00:14:03.459Z,94278.00
2024-01-01T00:15:03.323Z,94281.00
2024-01-01T00:16:03.371Z,94282.00
2024-01-01T00:17:04.215Z,94280.00
2024-01-01T00:18:03.591Z,94279.00
2024-01-01T00:19:03.455Z,94280.00
2024-01-01T00:20:03.486Z,94281.00
2024-01-01T00:21:03.427Z,94283.00
2024-01-01T00:22:03.479Z,94286.00
2024-01-01T00:23:03.547Z,94287.00
2024-01-01T00:24:03.586Z,94294.00
2024-01-01T00:25:05.546Z,94295.00
2024-01-01T00:26:03.588Z,94295.00
2024-01-01T00:27:03.592Z,94296.00
2024-01-01T00:28:03.910Z,94294.00
2024-01-01T00:29:03.693Z,94293.00
2024-01-01T00:30:03.784Z,94291.00
2024-01-01T00:31:03.575Z,94295.00
2024-01-01T00:32:03.619Z,94297.00
2024-01-01T00:33:03.646Z,94298.00
2024-01-01T00:34:03.669Z,94298.00
2024-01-01T00:35:03.622Z,94298.00
2024-01-01T00:36:03.636Z,94302.00
2024-01-01T00:37:03.620Z,94300.00
2024-01-01T00:38:04.814Z,94302.00
2024-01-01T00:39:03.624Z,94305.00
2024-01-01T00:40:06.535Z,94305.00
2024-01-01T00:41:03.687Z,94305.00
2024-01-01T00:42:03.599Z,94305.00
2024-01-01T00:43:03.612Z,94300.00
2024-01-01T00:44:03.606Z,94301.00
2024-01-01T00:45:03.698Z,94298.00
2024-01-01T00:46:03.596Z,94297.00
2024-01-01T00:47:03.658Z,94301.00
2024-01-01T00:48:04.209Z,94305.00
2024-01-01T00:49:03.716Z,94306.00
2024-01-01T00:50:03.704Z,94311.00
2024-01-01T00:51:03.624Z,94312.00
2024-01-01T00:52:03.639Z,94311.00
2024-01-01T00:53:03.704Z,94310.00
2024-01-01T00:54:03.623Z,94308.00
2024-01-01T00:55:03.638Z,94307.00
2024-01-01T00:56:03.647Z,94308.00
2024-01-01T00:57:03.603Z,94311.00
2024-01-01T00:58:03.946Z,94312.00
2024-01-01T00:59:03.646Z,94311.00
2024-01-01T01:00:03.618Z,94310.00
2024-01-01T01:01:03.637Z,94309.00
2024-01-01T01:02:03.678Z,94307.00
2024-01-01T01:03:03.697Z,94306.00
2024-01-01T01:04:03.630Z,94305.00
2024-01-01T01:05:06.729Z,94303.00
2024-01-01T01:06:11.285Z,94305.00
2024-01-01T01:07:04.640Z,94309.00
2024-01-01T01:08:03.981Z,94309.00
2024-01-01T01:09:03.667Z,94309.00
2024-01-01T01:10:03.633Z,94308.00
2024-01-01T01:11:03.702Z,94309.00
2024-01-01T01:12:03.646Z,94309.00
2024-01-01T01:13:03.649Z,94309.00
2024-01-01T01:14:03.675Z,94309.00
2024-01-01T01:15:03.661Z,94308.00
2024-01-01T01:16:03.672Z,94303.00
2024-01-01T01:17:03.646Z,94303.00
2024-01-01T01:18:04.278Z,94299.00
2024-01-01T01:19:03.809Z,94300.00
2024-01-01T01:20:05.818Z,94299.00
2024-01-01T01:21:03.669Z,94299.00
2024-01-01T01:22:03.650Z,94298.00
2024-01-01T01:23:03.702Z,94295.00
2024-01-01T01:24:03.682Z,94295.00
2024-01-01T01:25:03.657Z,94296.00
2024-01-01T01:26:03.763Z,94295.00
2024-01-01T01:27:03.682Z,94293.00
2024-01-01T01:28:03.848Z,94293.00
2024-01-01T01:29:03.773Z,94294.00
2024-01-01T01:30:03.758Z,94293.00
2024-01-01T01:31:03.684Z,94296.00
2024-01-01T01:32:03.767Z,94299.00
2024-01-01T01:33:03.747Z,94297.00
2024-01-01T01:34:03.680Z,94300.00
2024-01-01T01:35:03.882Z,94298.00
2024-01-01T01:36:03.699Z,94298.00
2024-01-01T01:37:03.710Z,94297.00
2024-01-01T01:38:03.953Z,94297.00
2024-01-01T01:39:03.716Z,94296.00
2024-01-01T01:40:03.676Z,94297.00
2024-01-01T01:41:03.758Z,94300.00
2024-01-01T01:42:03.685Z,94303.00
2024-01-01T01:43:03.680Z,94304.00
2024-01-01T01:44:03.803Z,94305.00
2024-01-01T01:45:03.692Z,94307.00
2024-01-01T01:46:03.694Z,94309.00
2024-01-01T01:47:03.736Z,94307.00
2024-01-01T01:48:04.121Z,94309.00
2024-01-01T01:49:03.725Z,94311.00
2024-01-01T01:50:03.701Z,94310.00
2024-01-01T01:51:03.745Z,94310.00
2024-01-01T01:52:03.715Z,94310.00
2024-01-01T01:53:03.791Z,94310.00
2024-01-01T01:54:03.713Z,94311.00
2024-01-01T01:55:03.733Z,94316.00
2024-01-01T01:56:03.775Z,94315.00
2024-01-01T01:57:03.687Z,94318.00
2024-01-01T01:58:03.885Z,94320.00
2024-01-01T01:59:03.763Z,94322.00
2024-01-01T02:00:03.718Z,94325.00
2024-01-01T02:01:03.766Z,94326.00
2024-01-01T02:02:03.747Z,94328.00
2024-01-01T02:03:03.760Z,94328.00
2024-01-01T02:04:03.705Z,94329.00
2024-01-01T02:05:03.809Z,94329.00
2024-01-01T02:06:03.814Z,94330.00
2024-01-01T02:07:03.728Z,94331.00
2024-01-01T02:08:04.189Z,94331.00
2024-01-01T02:09:03.735Z,94331.00
2024-01-01T02:10:03.726Z,94330.00
2024-01-01T02:11:03.792Z,94327.00
2024-01-01T02:12:03.785Z,94325.00
2024-01-01T02:13:03.776Z,94325.00
2024-01-01T02:14:03.768Z,94321.00
2024-01-01T02:15:03.749Z,94321.00
2024-01-01T02:16:03.726Z,94318.00
2024-01-01T02:17:03.842Z,94321.00
2024-01-01T02:18:03.759Z,94324.00
2024-01-01T02:19:03.850Z,94325.00
2024-01-01T02:20:11.446Z,94326.00
2024-01-01T02:21:05.123Z,94328.00
2024-01-01T02:22:03.752Z,94327.00
2024-01-01T02:23:03.856Z,94327.00
2024-01-01T02:24:03.871Z,94326.00
2024-01-01T02:25:03.772Z,94327.00
2024-01-01T02:26:03.802Z,94325.00
2024-01-01T02:27:03.786Z,94324.00
2024-01-01T02:28:03.915Z,94326.00
2024-01-01T02:29:03.841Z,94328.00
2024-01-01T02:30:03.880Z,94330.00
2024-01-01T02:31:03.770Z,94330.00
2024-01-01T02:32:03.806Z,94328.00
2024-01-01T02:33:03.840Z,94324.00
2024-01-01T02:34:03.771Z,94322.00
2024-01-01T02:35:03.846Z,94322.00
2024-01-01T02:36:03.821Z,94323.00
2024-01-01T02:37:03.958Z,94321.00
2024-01-01T02:38:04.187Z,94322.00
2024-01-01T02:39:03.976Z,94321.00
2024-01-01T02:40:04.041Z,94323.00
2024-01-01T02:41:04.072Z,94320.00
2024-01-01T02:42:04.081Z,94323.00
2024-01-01T02:43:04.119Z,94325.00
2024-01-01T02:44:04.247Z,94326.00
2024-01-01T02:45:04.194Z,94326.00
2024-01-01T02:46:04.234Z,94326.00
2024-01-01T02:47:04.283Z,94326.00
2024-01-01T02:48:04.673Z,94326.00
2024-01-01T02:49:04.408Z,94327.00
2024-01-01T02:50:04.409Z,94329.00
2024-01-01T02:51:04.426Z,94326.00
2024-01-01T02:52:04.473Z,94325.00
2024-01-01T02:53:04.638Z,94323.00
2024-01-01T02:54:04.555Z,94318.00
2024-01-01T02:55:04.558Z,94315.00
2024-01-01T02:56:04.670Z,94312.00
2024-01-01T02:57:04.641Z,94314.00
2024-01-01T02:58:04.961Z,94311.00
2024-01-01T02:59:04.721Z,94307.00
2024-01-01T03:00:04.774Z,94309.00
2024-01-01T03:01:04.856Z,94305.00
2024-01-01T03:02:04.826Z,94304.00
2024-01-01T03:03:04.911Z,94306.00
2024-01-01T03:04:04.896Z,94304.00
2024-01-01T03:05:05.006Z,94306.00
2024-01-01T03:06:05.022Z,94305.00
2024-01-01T03:07:05.112Z,94307.00
2024-01-01T03:08:05.484Z,94309.00
2024-01-01T03:09:05.109Z,94308.00
2024-01-01T03:10:05.137Z,94306.00
2024-01-01T03:11:05.211Z,94304.00
2024-01-01T03:12:05.266Z,94303.00
2024-01-01T03:13:05.275Z,94300.00
2024-01-01T03:14:05.333Z,94298.00
2024-01-01T03:15:05.385Z,94297.00
2024-01-01T03:16:05.384Z,94297.00
2024-01-01T03:17:05.432Z,94297.00
2024-01-01T03:18:05.781Z,94300.00
2024-01-01T03:19:05.601Z,94296.00
2024-01-01T03:20:05.563Z,94296.00
2024-01-01T03:21:05.570Z,94296.00
2024-01-01T03:22:05.562Z,94299.00
2024-01-01T03:23:05.622Z,94297.00
2024-01-01T03:24:05.648Z,94304.00
2024-01-01T03:25:05.674Z,94307.00
2024-01-01T03:26:05.731Z,94310.00
2024-01-01T03:27:05.712Z,94311.00
2024-01-01T03:28:06.019Z,94313.00
2024-01-01T03:29:05.797Z,94312.00
2024-01-01T03:30:05.868Z,94310.00
2024-01-01T03:31:05.921Z,94309.00
2024-01-01T03:32:05.931Z,94308.00
2024-01-01T03:33:06.014Z,94307.00
2024-01-01T03:34:06.059Z,94307.00
2024-01-01T03:35:06.140Z,94305.00
2024-01-01T03:36:06.049Z,94305.00
2024-01-01T03:37:06.104Z,94305.00
2024-01-01T03:38:06.584Z,94304.00
2024-01-01T03:39:06.124Z,94308.00
2024-01-01T03:40:06.155Z,94304.00
2024-01-01T03:41:06.255Z,94302.00
2024-01-01T03:42:06.287Z,94300.00
2024-01-01T03:43:06.284Z,94301.00
2024-01-01T03:44:06.340Z,94299.00
2024-01-01T03:45:06.338Z,94296.00
2024-01-01T03:46:06.391Z,94293.00
2024-01-01T03:47:06.429Z,94290.00
2024-01-01T03:48:06.772Z,94291.00
2024-01-01T03:49:06.538Z,94293.00
2024-01-01T03:50:06.596Z,94295.00
2024-01-01T03:51:06.547Z,94294.00
2024-01-01T03:52:06.596Z,94293.00
2024-01-01T03:53:06.640Z,94293.00
2024-01-01T03:54:06.633Z,94288.00
2024-01-01T03:55:06.708Z,94289.00
2024-01-01T03:56:06.823Z,94290.00
2024-01-01T03:57:06.764Z,94295.00
2024-01-01T03:58:06.973Z,94302.00
2024-01-01T03:59:06.898Z,94301.00
2024-01-01T04:00:08.882Z,94303.00
2024-01-01T04:01:06.947Z,94302.00
2024-01-01T04:02:06.948Z,94303.00
2024-01-01T04:03:06.946Z,94301.00
2024-01-01T04:04:07.006Z,94306.00
2024-01-01T04:05:07.041Z,94307.00
2024-01-01T04:06:07.098Z,94310.00
2024-01-01T04:07:07.074Z,94312.00
2024-01-01T04:08:07.389Z,94314.00
2024-01-01T04:09:07.182Z,94314.00
2024-01-01T04:10:07.235Z,94316.00
2024-01-01T04:11:07.269Z,94317.00
2024-01-01T04:12:07.267Z,94321.00
2024-01-01T04:13:07.323Z,94323.00
2024-01-01T04:14:07.416Z,94327.00
2024-01-01T04:15:07.473Z,94329.00
2024-01-01T04:16:07.450Z,94334.00
2024-01-01T04:17:07.508Z,94335.00
2024-01-01T04:18:07.740Z,94335.00
2024-01-01T04:19:07.564Z,94335.00
2024-01-01T04:20:07.594Z,94335.00
2024-01-01T04:21:07.596Z,94337.00
2024-01-01T04:22:07.621Z,94335.00
2024-01-01T04:23:07.734Z,94335.00
2024-01-01T04:24:07.667Z,94335.00
2024-01-01T04:25:07.685Z,94337.00
2024-01-01T04:26:07.775Z,94336.00
2024-01-01T04:27:07.743Z,94336.00
2024-01-01T04:28:07.974Z,94334.00
2024-01-01T04:29:07.875Z,94333.00
2024-01-01T04:30:07.943Z,94327.00
2024-01-01T04:31:07.897Z,94325.00
2024-01-01T04:32:07.946Z,94324.00
2024-01-01T04:33:08.154Z,94327.00
2024-01-01T04:34:08.024Z,94334.00
2024-01-01T04:35:08.201Z,94336.00
2024-01-01T04:36:08.107Z,94339.00
2024-01-01T04:37:08.118Z,94339.00
2024-01-01T04:38:08.397Z,94338.00
2024-01-01T04:39:15.879Z,94339.00
2024-01-01T04:40:15.843Z,94341.00
2024-01-01T04:41:16.010Z,94343.00
2024-01-01T04:42:15.858Z,94342.00
2024-01-01T04:43:15.863Z,94342.00
2024-01-01T04:44:15.905Z,94342.00
2024-01-01T04:45:15.876Z,94344.00
2024-01-01T04:46:15.849Z,94347.00
2024-01-01T04:47:15.915Z,94348.00
2024-01-01T04:48:15.998Z,94349.00
2024-01-01T04:49:15.949Z,94350.00
2024-01-01T04:50:15.923Z,94352.00
2024-01-01T04:51:15.906Z,94355.00
2024-01-01T04:52:15.900Z,94358.00
2024-01-01T04:53:15.936Z,94357.00
2024-01-01T04:54:15.889Z,94358.00
2024-01-01T04:55:15.881Z,94356.00
2024-01-01T04:56:16.007Z,94357.00
2024-01-01T04:57:15.886Z,94354.00
2024-01-01T04:58:15.868Z,94355.00
2024-01-01T04:59:15.920Z,94351.00
2024-01-01T05:00:15.892Z,94349.00
2024-01-01T05:01:15.917Z,94349.00
2024-01-01T05:02:15.975Z,94348.00
2024-01-01T05:03:15.933Z,94345.00
2024-01-01T05:04:15.908Z,94346.00
2024-01-01T05:05:15.912Z,94347.00
2024-01-01T05:06:15.948Z,94345.00
2024-01-01T05:07:15.899Z,94346.00
2024-01-01T05:08:15.931Z,94348.00
2024-01-01T05:09:15.890Z,94348.00
2024-01-01T05:10:15.886Z,94347.00
2024-01-01T05:11:15.908Z,94347.00
2024-01-01T05:12:15.898Z,94348.00
2024-01-01T05:13:15.932Z,94349.00
2024-01-01T05:14:15.933Z,94352.00
2024-01-01T05:15:15.944Z,94352.00
2024-01-01T05:16:16.044Z,94352.00
2024-01-01T05:17:16.164Z,94352.00
2024-01-01T05:18:16.163Z,94351.00
2024-01-01T05:19:16.338Z,94355.00
2024-01-01T05:20:16.430Z,94353.00
2024-01-01T05:21:16.379Z,94353.00
2024-01-01T05:22:16.417Z,94356.00
2024-01-01T05:23:16.556Z,94359.00
2024-01-01T05:24:16.486Z,94360.00
2024-01-01T05:25:16.558Z,94361.00
2024-01-01T05:26:16.710Z,94359.00
2024-01-01T05:27:16.687Z,94360.00
2024-01-01T05:28:16.702Z,94360.00
2024-01-01T05:29:16.867Z,94362.00
2024-01-01T05:30:16.866Z,94366.00
2024-01-01T05:31:16.870Z,94371.00
2024-01-01T05:32:17.122Z,94373.00
2024-01-01T05:33:17.099Z,94372.00
2024-01-01T05:34:17.051Z,94373.00
2024-01-01T05:35:17.167Z,94372.00
2024-01-01T05:36:17.128Z,94372.00
2024-01-01T05:37:17.149Z,94369.00
2024-01-01T05:38:17.301Z,94369.00
2024-01-01T05:39:17.286Z,94369.00
2024-01-01T05:40:17.338Z,94369.00
2024-01-01T05:41:17.416Z,94374.00
2024-01-01T05:42:17.398Z,94376.00
2024-01-01T05:43:17.471Z,94375.00
2024-01-01T05:44:17.590Z,94377.00
2024-01-01T05:45:17.543Z,94377.00
2024-01-01T05:46:17.578Z,94381.00
2024-01-01T05:47:17.691Z,94381.00
2024-01-01T05:48:25.700Z,94381.00
2024-01-01T05:49:18.772Z,94382.00
2024-01-01T05:50:17.847Z,94383.00
2024-01-01T05:51:17.737Z,94378.00
2024-01-01T05:52:17.718Z,94377.00
2024-01-01T05:53:17.768Z,94376.00
2024-01-01T05:54:17.709Z,94377.00
2024-01-01T05:55:17.715Z,94380.00
2024-01-01T05:56:17.748Z,94386.00
2024-01-01T05:57:17.729Z,94384.00
2024-01-01T05:58:17.736Z,94386.00
2024-01-01T05:59:17.790Z,94385.00
2024-01-01T06:00:17.769Z,94382.00
2024-01-01T06:01:17.823Z,94380.00
2024-01-01T06:02:17.920Z,94382.00
2024-01-01T06:03:17.959Z,94383.00
2024-01-01T06:04:18.008Z,94384.00
2024-01-01T06:05:18.089Z,94387.00
2024-01-01T06:06:18.090Z,94387.00
2024-01-01T06:07:18.152Z,94386.00
2024-01-01T06:08:18.259Z,94390.00
2024-01-01T06:09:18.281Z,94389.00
2024-01-01T06:10:18.343Z,94387.00
2024-01-01T06:11:18.472Z,94386.00
2024-01-01T06:12:18.484Z,94387.00
2024-01-01T06:13:18.504Z,94390.00
2024-01-01T06:14:18.579Z,94392.00
2024-01-01T06:15:18.600Z,94394.00
2024-01-01T06:16:18.691Z,94396.00
2024-01-01T06:17:20.375Z,94399.00
2024-01-01T06:18:18.915Z,94399.00
2024-01-01T06:19:18.995Z,94400.00
2024-01-01T06:20:18.960Z,94401.00
2024-01-01T06:21:18.941Z,94401.00
2024-01-01T06:22:18.972Z,94402.00
2024-01-01T06:23:19.122Z,94402.00
2024-01-01T06:24:19.094Z,94402.00
2024-01-01T06:25:19.304Z,94404.00
2024-01-01T06:26:19.369Z,94405.00
2024-01-01T06:27:19.251Z,94404.00
2024-01-01T06:28:19.290Z,94403.00
2024-01-01T06:29:19.526Z,94400.00
2024-01-01T06:30:19.477Z,94404.00
2024-01-01T06:31:19.487Z,94403.00
2024-01-01T06:32:19.561Z,94405.00
2024-01-01T06:33:19.743Z,94405.00
2024-01-01T06:34:19.652Z,94408.00
2024-01-01T06:35:19.757Z,94409.00
2024-01-01T06:36:19.769Z,94414.00
2024-01-01T06:37:19.827Z,94413.00
2024-01-01T06:38:19.940Z,94414.00
2024-01-01T06:39:19.946Z,94415.00
2024-01-01T06:40:20.052Z,94418.00
2024-01-01T06:41:20.127Z,94420.00
2024-01-01T06:42:20.160Z,94426.00
2024-01-01T06:43:20.149Z,94430.00
2024-01-01T06:44:20.247Z,94428.00
2024-01-01T06:45:20.255Z,94427.00
2024-01-01T06:46:20.350Z,94424.00
2024-01-01T06:47:20.525Z,94420.00
2024-01-01T06:48:20.608Z,94421.00
2024-01-01T06:49:20.543Z,94425.00
2024-01-01T06:50:20.692Z,94428.00
2024-01-01T06:51:20.629Z,94433.00
2024-01-01T06:52:20.699Z,94436.00
2024-01-01T06:53:20.779Z,94442.00
2024-01-01T06:54:20.816Z,94442.00
2024-01-01T06:55:20.851Z,94441.00
2024-01-01T06:56:20.940Z,94435.00
2024-01-01T06:57:21.230Z,94435.00
2024-01-01T06:58:21.068Z,94436.00
2024-01-01T06:59:21.140Z,94440.00
2024-01-01T07:00:21.203Z,94443.00
2024-01-01T07:01:21.274Z,94446.00
2024-01-01T07:02:21.446Z,94448.00
2024-01-01T07:03:21.374Z,94451.00
2024-01-01T07:04:21.393Z,94455.00
2024-01-01T07:05:21.489Z,94460.00
2024-01-01T07:06:21.555Z,94461.00
2024-01-01T07:07:21.574Z,94462.00
2024-01-01T07:08:21.749Z,94461.00
2024-01-01T07:09:21.699Z,94461.00
2024-01-01T07:10:21.742Z,94463.00
2024-01-01T07:11:21.826Z,94467.00
2024-01-01T07:12:21.914Z,94468.00
2024-01-01T07:13:21.922Z,94473.00
2024-01-01T07:14:22.026Z,94477.00
2024-01-01T07:15:22.082Z,94475.00
2024-01-01T07:16:22.137Z,94478.00
2024-01-01T07:17:22.340Z,94474.00
2024-01-01T07:18:22.375Z,94475.00
2024-01-01T07:19:22.669Z,94475.00
2024-01-01T07:20:22.468Z,94472.00
2024-01-01T07:21:22.433Z,94475.00
2024-01-01T07:22:22.486Z,94477.00
2024-01-01T07:23:22.633Z,94482.00
2024-01-01T07:24:22.599Z,94483.00
2024-01-01T07:25:22.667Z,94484.00
2024-01-01T07:26:22.798Z,94483.00
2024-01-01T07:27:22.746Z,94485.00
2024-01-01T07:28:22.832Z,94482.00
2024-01-01T07:29:22.917Z,94484.00
2024-01-01T07:30:23.027Z,94486.00
2024-01-01T07:31:23.002Z,94485.00
2024-01-01T07:32:23.317Z,94486.00
2024-01-01T07:33:23.321Z,94484.00
2024-01-01T07:34:23.195Z,94484.00
2024-01-01T07:35:23.293Z,94484.00
2024-01-01T07:36:24.529Z,94488.00
2024-01-01T07:37:23.419Z,94490.00
2024-01-01T07:38:23.459Z,94494.00
2024-01-01T07:39:23.473Z,94493.00
2024-01-01T07:40:23.573Z,94494.00
2024-01-01T07:41:23.662Z,94497.00
2024-01-01T07:42:23.667Z,94497.00
2024-01-01T07:43:23.782Z,94496.00
2024-01-01T07:44:23.872Z,94496.00
2024-01-01T07:45:23.902Z,94496.00
2024-01-01T07:46:23.950Z,94499.00
2024-01-01T07:47:24.153Z,94498.00
2024-01-01T07:48:24.113Z,94499.00
2024-01-01T07:49:24.158Z,94502.00
2024-01-01T07:50:24.254Z,94501.00
2024-01-01T07:51:24.276Z,94500.00
2024-01-01T07:52:24.334Z,94498.00
2024-01-01T07:53:24.449Z,94500.00
2024-01-01T07:54:24.428Z,94502.00
2024-01-01T07:55:24.497Z,94502.00
2024-01-01T07:56:26.051Z,94504.00
2024-01-01T07:57:24.610Z,94503.00
2024-01-01T07:58:24.684Z,94505.00
2024-01-01T07:59:24.744Z,94502.00
2024-01-01T08:00:24.792Z,94505.00
2024-01-01T08:01:24.899Z,94504.00
2024-01-01T08:02:26.935Z,94506.00
2024-01-01T08:03:25.069Z,94506.00
2024-01-01T08:04:25.069Z,94509.00
2024-01-01T08:05:25.302Z,94509.00
2024-01-01T08:06:25.184Z,94506.00
2024-01-01T08:07:25.250Z,94502.00
2024-01-01T08:08:25.324Z,94499.00
2024-01-01T08:09:25.391Z,94493.00
2024-01-01T08:10:25.406Z,94495.00
2024-01-01T08:11:25.512Z,94496.00
2024-01-01T08:12:25.536Z,94498.00
2024-01-01T08:13:25.594Z,94497.00
2024-01-01T08:14:25.758Z,94497.00
2024-01-01T08:15:25.803Z,94497.00
2024-01-01T08:16:25.801Z,94499.00
2024-01-01T08:17:26.027Z,94499.00
2024-01-01T08:18:26.009Z,94503.00
2024-01-01T08:19:25.974Z,94506.00
2024-01-01T08:20:26.304Z,94507.00
2024-01-01T08:21:26.092Z,94507.00
2024-01-01T08:22:26.135Z,94510.00
2024-01-01T08:23:26.262Z,94511.00
2024-01-01T08:24:26.284Z,94510.00
2024-01-01T08:25:26.342Z,94512.00
2024-01-01T08:26:26.385Z,94513.00
2024-01-01T08:27:26.432Z,94515.00
2024-01-01T08:28:26.460Z,94514.00
2024-01-01T08:29:26.585Z,94516.00
2024-01-01T08:30:26.610Z,94517.00
2024-01-01T08:31:26.661Z,94516.00
2024-01-01T08:32:26.756Z,94517.00
2024-01-01T08:33:26.745Z,94518.00
2024-01-01T08:34:26.748Z,94520.00
2024-01-01T08:35:26.858Z,94522.00
2024-01-01T08:36:26.868Z,94519.00
2024-01-01T08:37:26.908Z,94518.00
2024-01-01T08:38:27.051Z,94517.00
2024-01-01T08:39:27.011Z,94522.00
2024-01-01T08:40:27.066Z,94522.00
2024-01-01T08:41:27.184Z,94526.00
2024-01-01T08:42:27.180Z,94528.00
2024-01-01T08:43:27.232Z,94531.00
2024-01-01T08:44:27.322Z,94534.00
2024-01-01T08:45:27.316Z,94537.00
2024-01-01T08:46:27.398Z,94538.00
2024-01-01T08:47:27.542Z,94540.00
2024-01-01T08:48:27.683Z,94542.00
2024-01-01T08:49:27.606Z,94543.00
2024-01-01T08:50:27.613Z,94544.00
2024-01-01T08:51:27.622Z,94545.00
2024-01-01T08:52:27.674Z,94548.00
2024-01-01T08:53:27.818Z,94551.00
2024-01-01T08:54:27.767Z,94553.00
2024-01-01T08:55:27.800Z,94554.00
2024-01-01T08:56:27.863Z,94552.00
2024-01-01T08:57:27.857Z,94552.00
2024-01-01T08:58:27.921Z,94552.00
2024-01-01T08:59:27.919Z,94551.00
2024-01-01T09:00:27.949Z,94555.00
2024-01-01T09:01:27.934Z,94556.00
2024-01-01T09:02:27.930Z,94561.00
2024-01-01T09:03:28.052Z,94566.00
2024-01-01T09:04:27.984Z,94570.00
2024-01-01T09:05:28.260Z,94571.00
2024-01-01T09:06:27.999Z,94571.00
2024-01-01T09:07:28.040Z,94572.00
2024-01-01T09:08:28.102Z,94572.00
2024-01-01T09:09:28.121Z,94572.00
2024-01-01T09:10:28.166Z,94572.00
2024-01-01T09:11:28.263Z,94572.00
2024-01-01T09:12:28.280Z,94569.00
2024-01-01T09:13:28.389Z,94568.00
2024-01-01T09:14:28.519Z,94568.00
2024-01-01T09:15:28.493Z,94567.00
2024-01-01T09:16:28.599Z,94567.00
2024-01-01T09:17:28.817Z,94572.00
2024-01-01T09:18:28.990Z,94570.00
2024-01-01T09:19:28.815Z,94574.00
2024-01-01T09:20:28.900Z,94572.00
2024-01-01T09:21:28.920Z,94573.00
2024-01-01T09:22:29.009Z,94572.00
2024-01-01T09:23:29.094Z,94575.00
2024-01-01T09:24:29.073Z,94577.00
2024-01-01T09:25:29.189Z,94579.00
2024-01-01T09:26:29.248Z,94580.00
2024-01-01T09:27:29.308Z,94581.00
2024-01-01T09:28:29.362Z,94583.00
2024-01-01T09:29:29.432Z,94584.00
2024-01-01T09:30:29.593Z,94587.00
2024-01-01T09:31:29.604Z,94589.00
2024-01-01T09:32:32.542Z,94591.00
2024-01-01T09:33:29.769Z,94591.00
2024-01-01T09:34:29.639Z,94591.00
2024-01-01T09:35:29.734Z,94591.00
2024-01-01T09:36:29.649Z,94591.00
2024-01-01T09:37:29.625Z,94593.00
2024-01-01T09:38:29.720Z,94590.00
2024-01-01T09:39:29.669Z,94590.00
2024-01-01T09:40:29.655Z,94589.00
2024-01-01T09:41:29.751Z,94589.00
2024-01-01T09:42:29.665Z,94588.00
2024-01-01T09:43:29.636Z,94586.00
2024-01-01T09:44:29.752Z,94586.00
2024-01-01T09:45:29.648Z,94584.00
2024-01-01T09:46:29.685Z,94586.00
2024-01-01T09:47:29.758Z,94587.00
2024-01-01T09:48:29.746Z,94591.00
2024-01-01T09:49:29.767Z,94590.00
2024-01-01T09:50:29.689Z,94592.00
2024-01-01T09:51:29.687Z,94589.00
2024-01-01T09:52:29.670Z,94587.00
2024-01-01T09:53:29.717Z,94584.00
2024-01-01T09:54:29.644Z,94579.00
2024-01-01T09:55:29.653Z,94577.00
2024-01-01T09:56:31.337Z,94577.00
2024-01-01T09:57:29.633Z,94575.00
2024-01-01T09:58:29.625Z,94577.00
2024-01-01T09:59:29.671Z,94575.00
2024-01-01T10:00:29.761Z,94577.00
2024-01-01T10:01:29.671Z,94575.00
2024-01-01T10:02:29.687Z,94575.00
2024-01-01T10:03:29.670Z,94572.00
2024-01-01T10:04:29.672Z,94573.00
2024-01-01T10:05:29.727Z,94573.00
2024-01-01T10:06:29.703Z,94574.00
2024-01-01T10:07:29.681Z,94576.00
2024-01-01T10:08:29.718Z,94579.00
2024-01-01T10:09:29.670Z,94577.00
2024-01-01T10:10:29.704Z,94574.00
2024-01-01T10:11:29.800Z,94572.00
2024-01-01T10:12:29.678Z,94571.00
2024-01-01T10:13:29.660Z,94571.00
2024-01-01T10:14:29.692Z,94569.00
2024-01-01T10:15:29.651Z,94568.00
2024-01-01T10:16:29.723Z,94566.00
2024-01-01T10:17:29.964Z,94564.00
2024-01-01T10:18:29.811Z,94562.00
2024-01-01T10:19:29.826Z,94562.00
2024-01-01T10:20:29.709Z,94565.00
2024-01-01T10:21:29.665Z,94564.00
2024-01-01T10:22:29.677Z,94567.00
2024-01-01T10:23:30.016Z,94568.00
2024-01-01T10:24:33.046Z,94566.00
2024-01-01T10:25:29.656Z,94565.00
2024-01-01T10:26:29.687Z,94563.00
2024-01-01T10:27:29.686Z,94560.00
2024-01-01T10:28:29.670Z,94559.00
2024-01-01T10:29:29.803Z,94558.00
2024-01-01T10:30:29.731Z,94556.00
2024-01-01T10:31:29.693Z,94557.00
2024-01-01T10:32:29.747Z,94556.00
2024-01-01T10:33:29.813Z,94556.00
2024-01-01T10:34:29.695Z,94556.00
2024-01-01T10:35:29.844Z,94555.00
2024-01-01T10:36:29.711Z,94553.00
2024-01-01T10:37:29.686Z,94554.00
2024-01-01T10:38:29.788Z,94553.00
2024-01-01T10:39:29.679Z,94556.00
2024-01-01T10:40:29.686Z,94554.00
2024-01-01T10:41:29.701Z,94553.00
2024-01-01T10:42:29.716Z,94556.00
2024-01-01T10:43:29.728Z,94555.00
2024-01-01T10:44:29.773Z,94554.00
2024-01-01T10:45:29.729Z,94552.00
2024-01-01T10:46:29.702Z,94553.00
2024-01-01T10:47:29.780Z,94551.00
2024-01-01T10:48:31.305Z,94552.00
2024-01-01T10:49:29.704Z,94552.00
2024-01-01T10:50:30.166Z,94555.00
2024-01-01T10:51:29.695Z,94559.00
2024-01-01T10:52:29.726Z,94563.00
2024-01-01T10:53:29.872Z,94565.00
2024-01-01T10:54:29.716Z,94566.00
2024-01-01T10:55:29.712Z,94564.00
2024-01-01T10:56:29.755Z,94559.00
2024-01-01T10:57:29.710Z,94559.00
2024-01-01T10:58:29.694Z,94557.00
2024-01-01T10:59:29.700Z,94554.00
2024-01-01T11:00:30.026Z,94554.00
2024-01-01T11:01:29.715Z,94549.00
2024-01-01T11:02:30.096Z,94548.00
2024-01-01T11:03:29.781Z,94545.00
2024-01-01T11:04:29.730Z,94540.00
2024-01-01T11:06:29.709Z,94543.00
2024-01-01T11:07:29.721Z,94544.00
2024-01-01T11:08:29.921Z,94545.00
2024-01-01T11:09:29.705Z,94544.00
2024-01-01T11:10:29.801Z,94545.00
2024-01-01T11:11:29.795Z,94543.00
2024-01-01T11:12:29.858Z,94541.00
2024-01-01T11:13:31.327Z,94540.00
2024-01-01T11:14:29.934Z,94539.00
2024-01-01T11:15:29.952Z,94537.00
2024-01-01T11:16:30.024Z,94539.00
2024-01-01T11:17:30.202Z,94540.00
2024-01-01T11:18:30.384Z,94540.00
2024-01-01T11:19:30.297Z,94542.00
2024-01-01T11:20:30.312Z,94542.00
2024-01-01T11:21:30.342Z,94543.00
2024-01-01T11:22:30.468Z,94543.00
2024-01-01T11:23:30.482Z,94540.00
2024-01-01T11:24:36.666Z,94539.00
2024-01-01T11:25:31.571Z,94537.00
2024-01-01T11:26:30.543Z,94536.00
2024-01-01T11:27:30.619Z,94533.00
2024-01-01T11:28:30.577Z,94529.00
2024-01-01T11:29:30.606Z,94528.00
2024-01-01T11:30:30.585Z,94528.00
2024-01-01T11:31:30.584Z,94528.00
2024-01-01T11:32:30.647Z,94530.00
2024-01-01T11:33:30.690Z,94532.00
2024-01-01T11:34:35.242Z,94531.00
2024-01-01T11:35:31.658Z,94530.00
2024-01-01T11:36:30.607Z,94531.00
2024-01-01T11:37:30.588Z,94535.00
2024-01-01T11:38:30.651Z,94536.00
2024-01-01T11:39:30.588Z,94537.00
2024-01-01T11:40:30.578Z,94535.00
2024-01-01T11:41:30.603Z,94537.00
2024-01-01T11:42:30.587Z,94538.00
2024-01-01T11:43:30.634Z,94537.00
2024-01-01T11:44:30.721Z,94540.00
2024-01-01T11:45:30.711Z,94541.00